Time;durP1;ratioP1;P1;durP2;ratioP2;P2;SDS_P1;SDS_P2;PMS_P1;PMS_P2;Temp;Humidity;BMP_temperature;BMP_pressure;BME280_temperature;BME280_humidity;BME280_pressure;Samples;Min_cycle;Max_cycle;Signal;HPM_P1;HPM_P2
2022/05/16 00:00:36;;;;;;;1.10;1.00;;;22.40;58.80;;;;;;5039691;28;20054;-34
2022/05/16 00:03:03;;;;;;;4.85;0.82;;;22.40;58.90;;;;;;5045722;28;20117;-35
2022/05/16 00:05:30;;;;;;;1.15;0.88;;;22.40;58.90;;;;;;5047915;28;20040;-34
2022/05/16 00:07:56;;;;;;;0.80;0.80;;;22.40;59.00;;;;;;5040282;28;20021;-34
2022/05/16 00:10:22;;;;;;;1.10;0.90;;;22.40;59.20;;;;;;5055982;28;20035;-34
2022/05/16 00:12:48;;;;;;;0.80;0.80;;;22.40;59.20;;;;;;5046949;28;20018;-34
2022/05/16 00:15:16;;;;;;;0.85;0.80;;;22.40;58.90;;;;;;5042341;28;20061;-35
2022/05/16 00:17:41;;;;;;;;;;;22.40;59.10;;;;;;5036168;28;20096;-34
2022/05/16 00:20:08;;;;;;;1.02;0.93;;;22.40;59.20;;;;;;5046082;28;20672;-35
2022/05/16 00:22:35;;;;;;;1.00;0.90;;;22.40;59.10;;;;;;5041947;28;20030;-34
2022/05/16 00:25:02;;;;;;;1.48;0.98;;;22.40;59.20;;;;;;5026294;28;20042;-34
2022/05/16 00:27:33;;;;;;;1.10;0.98;;;22.40;59.30;;;;;;5045641;28;20029;-34
2022/05/16 00:30:00;;;;;;;0.73;0.73;;;22.40;59.40;;;;;;5048043;28;20045;-34
2022/05/16 00:32:26;;;;;;;6.50;0.98;;;22.40;59.70;;;;;;5045595;28;20029;-36
2022/05/16 00:34:52;;;;;;;1.95;0.90;;;22.50;59.40;;;;;;5043982;28;20526;-34
2022/05/16 00:37:18;;;;;;;1.58;1.00;;;22.50;59.00;;;;;;5045246;28;20064;-34
2022/05/16 00:39:44;;;;;;;2.25;0.95;;;22.50;59.20;;;;;;5048614;28;20125;-34
2022/05/16 00:42:13;;;;;;;2.15;1.00;;;22.50;59.20;;;;;;5045572;28;20068;-34
2022/05/16 00:44:40;;;;;;;2.85;1.10;;;22.50;59.40;;;;;;5044887;28;20030;-34
2022/05/16 00:47:06;;;;;;;3.65;0.80;;;22.50;59.40;;;;;;5045358;28;20037;-34
2022/05/16 00:49:35;;;;;;;2.47;1.30;;;22.50;59.50;;;;;;5046496;28;20030;-34
2022/05/16 00:52:11;;;;;;;2.35;0.80;;;22.50;59.50;;;;;;5045149;28;20061;-34
2022/05/16 00:54:41;;;;;;;4.13;0.90;;;22.50;59.60;;;;;;5044085;28;20057;-34
2022/05/16 00:57:11;;;;;;;1.73;1.25;;;22.50;59.70;;;;;;5045552;28;20143;-34
2022/05/16 00:59:45;;;;;;;3.47;1.20;;;22.50;59.70;;;;;;5044850;28;20069;-34
2022/05/16 01:04:56;;;;;;;1.10;0.95;;;22.60;59.80;;;;;;5045673;28;20565;-43
2022/05/16 01:07:30;;;;;;;0.80;0.70;;;22.50;58.80;;;;;;5044958;28;20022;-43
2022/05/16 01:09:56;;;;;;;0.88;0.88;;;22.50;58.30;;;;;;5046263;28;20029;-42
2022/05/16 01:12:36;;;;;;;1.52;0.90;;;22.50;57.80;;;;;;5042892;28;20248;-43
2022/05/16 01:15:32;;;;;;;2.08;0.98;;;22.50;58.50;;;;;;5053928;28;20063;-43
2022/05/16 01:17:58;;;;;;;1.90;1.10;;;22.60;58.70;;;;;;5043744;28;20045;-43
2022/05/16 01:20:48;;;;;;;2.65;1.00;;;22.60;58.90;;;;;;5044788;28;20052;-43
2022/05/16 01:23:15;;;;;;;2.13;0.95;;;22.60;58.90;;;;;;5043410;28;20013;-43
2022/05/16 01:25:41;;;;;;;1.27;0.90;;;22.50;58.90;;;;;;5044232;28;20033;-43
2022/05/16 01:28:07;;;;;;;0.90;0.75;;;22.50;58.90;;;;;;5039419;28;20520;-43
2022/05/16 01:30:40;;;;;;;1.42;0.90;;;22.60;58.90;;;;;;5044678;28;20037;-43
2022/05/16 01:33:06;;;;;;;1.02;0.90;;;22.50;58.80;;;;;;5044975;28;20033;-43
2022/05/16 01:35:32;;;;;;;0.95;0.90;;;22.60;58.80;;;;;;5034323;28;20073;-43
2022/05/16 01:40:44;;;;;;;5.18;1.20;;;22.60;58.70;;;;;;5038806;28;20064;-34
2022/05/16 01:43:10;;;;;;;1.73;1.13;;;22.60;58.60;;;;;;5044419;28;20036;-34
2022/05/16 01:45:37;;;;;;;1.23;0.85;;;22.50;58.50;;;;;;5045873;28;20337;-34
2022/05/16 01:48:03;;;;;;;2.72;1.00;;;22.50;58.60;;;;;;5040138;28;20037;-36
2022/05/16 01:50:29;;;;;;;1.35;0.80;;;22.50;58.60;;;;;;5046161;28;20039;-34
2022/05/16 01:52:56;;;;;;;0.95;0.90;;;22.50;58.70;;;;;;5045969;28;20107;-34
2022/05/16 01:55:22;;;;;;;1.67;1.10;;;22.50;58.70;;;;;;5041846;28;20033;-34
2022/05/16 01:57:48;;;;;;;1.60;0.93;;;22.60;58.80;;;;;;5044205;28;20040;-34
2022/05/16 02:00:15;;;;;;;0.82;0.80;;;22.50;58.80;;;;;;5047413;28;20646;-35
2022/05/16 02:02:42;;;;;;;1.38;0.93;;;22.60;58.90;;;;;;5043938;28;20040;-34
2022/05/16 02:05:09;;;;;;;1.20;0.80;;;22.60;58.90;;;;;;5045682;28;20049;-33
2022/05/16 02:07:35;;;;;;;;;;;22.60;58.90;;;;;;5041702;28;20037;-34
2022/05/16 02:10:02;;;;;;;0.80;0.80;;;22.60;59.00;;;;;;5040540;28;19972;-34
2022/05/16 02:12:28;;;;;;;0.98;0.82;;;22.60;59.00;;;;;;5039950;28;20095;-34
2022/05/16 02:14:54;;;;;;;0.80;0.80;;;22.60;59.60;;;;;;5041730;28;20033;-34
2022/05/16 02:17:20;;;;;;;1.20;0.90;;;22.60;59.10;;;;;;5041488;28;20485;-35
2022/05/16 02:19:46;;;;;;;1.15;0.80;;;22.60;59.10;;;;;;5041279;28;20030;-34
2022/05/16 02:24:57;;;;;;;1.02;0.88;;;22.70;59.20;;;;;;5042881;28;20118;-34
2022/05/16 02:27:24;;;;;;;1.00;0.60;;;22.60;59.10;;;;;;5042007;28;20682;-34
2022/05/16 02:29:50;;;;;;;1.48;0.70;;;22.70;59.20;;;;;;5040985;28;20553;-34
2022/05/16 02:32:16;;;;;;;0.70;0.70;;;22.70;59.20;;;;;;5045508;28;20072;-34
2022/05/16 02:34:44;;;;;;;2.20;0.77;;;22.70;59.20;;;;;;5039008;28;20156;-34
2022/05/16 02:37:11;;;;;;;0.80;0.70;;;22.70;59.20;;;;;;5040030;28;20029;-35
2022/05/16 02:39:37;;;;;;;0.90;0.68;;;22.70;59.20;;;;;;5032853;28;20022;-33
2022/05/16 02:42:04;;;;;;;0.98;0.80;;;22.70;59.20;;;;;;5039383;28;20037;-34
2022/05/16 02:44:30;;;;;;;1.13;0.73;;;22.70;59.20;;;;;;5043040;28;20490;-33
2022/05/16 02:46:56;;;;;;;1.35;0.80;;;22.80;59.30;;;;;;5045132;28;20097;-34
2022/05/16 02:49:43;;;;;;;1.17;0.60;;;22.70;59.20;;;;;;5063789;28;20028;-34
2022/05/16 02:52:09;;;;;;;1.10;0.68;;;22.80;59.30;;;;;;5042130;28;20654;-34
2022/05/16 02:54:35;;;;;;;0.70;0.70;;;22.80;59.30;;;;;;5039723;28;20052;-33
2022/05/16 02:57:02;;;;;;;0.63;0.55;;;22.80;59.30;;;;;;5040039;28;20064;-34
2022/05/16 02:59:32;;;;;;;;;;;22.80;59.40;;;;;;5040475;28;20049;-34
2022/05/16 03:01:59;;;;;;;0.70;0.70;;;22.80;59.40;;;;;;5040567;28;19991;-34
2022/05/16 03:04:25;;;;;;;;;;;22.80;59.40;;;;;;5039870;28;20034;-34
2022/05/16 03:06:51;;;;;;;0.95;0.80;;;22.80;59.40;;;;;;5039177;28;20003;-34
2022/05/16 03:09:17;;;;;;;1.42;0.63;;;22.80;59.50;;;;;;5040250;28;20045;-34
2022/05/16 03:11:44;;;;;;;2.63;0.90;;;22.80;59.50;;;;;;5039460;28;20453;-35
2022/05/16 03:14:11;;;;;;;0.77;0.77;;;22.80;59.50;;;;;;5039183;28;20033;-35
2022/05/16 03:16:38;;;;;;;1.13;0.63;;;22.90;59.60;;;;;;5059040;28;20476;-34
2022/05/16 03:19:04;;;;;;;0.60;0.60;;;22.90;59.60;;;;;;5039387;28;20041;-34
2022/05/16 03:21:31;;;;;;;1.38;0.70;;;22.90;59.60;;;;;;5037846;28;20041;-34
2022/05/16 03:23:58;;;;;;;1.25;0.70;;;22.90;59.60;;;;;;5039673;28;20095;-34
2022/05/16 03:26:24;;;;;;;0.80;0.80;;;22.80;59.50;;;;;;5044970;28;20029;-34
2022/05/16 03:28:50;;;;;;;1.70;0.65;;;22.90;59.60;;;;;;5039436;28;20055;-34
2022/05/16 03:31:16;;;;;;;0.98;0.77;;;22.90;59.60;;;;;;5039949;28;20037;-34
2022/05/16 03:33:43;;;;;;;0.77;0.70;;;22.90;59.60;;;;;;5038176;28;20033;-34
2022/05/16 03:36:09;;;;;;;1.48;0.90;;;22.90;59.60;;;;;;5038654;28;20029;-34
2022/05/16 03:41:20;;;;;;;1.33;0.90;;;22.90;59.70;;;;;;5047847;28;20072;-34
2022/05/16 03:43:46;;;;;;;0.57;0.57;;;22.90;59.70;;;;;;5047530;28;20029;-36
2022/05/16 03:46:12;;;;;;;1.15;0.80;;;23.00;59.70;;;;;;5044668;28;20028;-34
2022/05/16 03:48:38;;;;;;;0.73;0.73;;;23.00;59.70;;;;;;5046105;28;20018;-34
2022/05/16 03:51:05;;;;;;;5.47;1.20;;;23.00;59.80;;;;;;5044566;28;20040;-34
2022/05/16 03:53:31;;;;;;;8.90;1.60;;;23.00;59.80;;;;;;5043582;28;20034;-34
2022/05/16 03:55:58;;;;;;;3.00;1.60;;;22.90;59.90;;;;;;5046949;28;20042;-35
2022/05/16 03:58:24;;;;;;;3.33;1.15;;;23.00;60.00;;;;;;5038890;28;20056;-34
2022/05/16 04:00:50;;;;;;;4.85;1.20;;;23.00;60.00;;;;;;5043779;28;20050;-34
2022/05/16 04:03:19;;;;;;;2.38;1.30;;;23.00;60.00;;;;;;5046924;28;20049;-34
2022/05/16 04:05:45;;;;;;;2.83;1.20;;;23.00;60.00;;;;;;5041923;28;20034;-34
2022/05/16 04:08:11;;;;;;;2.08;1.35;;;23.00;60.00;;;;;;5038960;28;20109;-33
2022/05/16 04:10:37;;;;;;;4.28;1.48;;;23.00;60.00;;;;;;5047728;28;20037;-34
2022/05/16 04:13:03;;;;;;;2.35;1.20;;;23.00;60.00;;;;;;5043313;28;20624;-34
2022/05/16 04:15:29;;;;;;;2.13;1.38;;;23.00;60.00;;;;;;5046169;28;20036;-34
2022/05/16 04:17:55;;;;;;;3.10;1.23;;;23.00;60.00;;;;;;5045814;28;20029;-34
2022/05/16 04:20:22;;;;;;;2.72;1.25;;;23.00;60.00;;;;;;5047900;28;20038;-34
2022/05/16 04:22:48;;;;;;;1.70;1.33;;;23.00;60.00;;;;;;5042449;28;20052;-34
2022/05/16 04:25:16;;;;;;;1.48;1.08;;;23.00;60.00;;;;;;5044789;28;20033;-35
2022/05/16 04:27:42;;;;;;;2.45;1.27;;;22.90;60.00;;;;;;5047469;28;20036;-34
2022/05/16 04:30:09;;;;;;;3.67;1.48;;;23.00;60.00;;;;;;5041547;28;20033;-34
2022/05/16 04:32:35;;;;;;;1.33;1.05;;;23.00;60.00;;;;;;5043742;28;20033;-35
2022/05/16 04:35:02;;;;;;;2.20;1.40;;;23.00;60.00;;;;;;5042623;28;20586;-34
2022/05/16 04:37:32;;;;;;;1.88;1.20;;;23.00;60.00;;;;;;5043180;28;20033;-34
2022/05/16 04:39:59;;;;;;;1.95;1.40;;;23.00;60.00;;;;;;5048488;28;20049;-34
2022/05/16 04:42:40;;;;;;;;;;;22.90;60.00;;;;;;5041694;28;20093;-34
2022/05/16 04:45:15;;;;;;;6.68;1.67;;;23.00;60.10;;;;;;5045671;28;19959;-34
2022/05/16 04:47:42;;;;;;;2.47;1.52;;;23.00;60.20;;;;;;5042074;28;20144;-33
2022/05/16 04:50:08;;;;;;;7.30;1.83;;;23.00;60.20;;;;;;5041094;28;20039;-36
2022/05/16 04:52:35;;;;;;;6.82;2.08;;;23.00;60.20;;;;;;5043381;28;20036;-38
2022/05/16 04:55:01;;;;;;;5.05;1.67;;;23.00;60.20;;;;;;5045267;28;20124;-38
2022/05/16 04:57:27;;;;;;;3.10;1.88;;;23.00;60.30;;;;;;5044816;28;20029;-38
2022/05/16 04:59:53;;;;;;;2.58;1.80;;;23.00;60.30;;;;;;5039710;28;20152;-38
2022/05/16 05:02:19;;;;;;;5.47;1.73;;;23.00;60.30;;;;;;5045310;28;20063;-39
2022/05/16 05:04:46;;;;;;;3.50;1.65;;;23.00;60.20;;;;;;5041421;28;20132;-38
2022/05/16 05:07:12;;;;;;;4.10;1.60;;;23.00;60.20;;;;;;5045783;28;20037;-37
2022/05/16 05:15:09;;;;;;;6.85;1.77;;;22.90;60.10;;;;;;5042672;28;20032;-37
2022/05/16 05:17:35;;;;;;;;;;;22.90;60.10;;;;;;5045121;28;20092;-38
2022/05/16 05:20:02;;;;;;;3.47;1.85;;;22.90;60.10;;;;;;5047699;28;20456;-38
2022/05/16 05:22:29;;;;;;;4.57;1.70;;;22.80;60.10;;;;;;5046183;28;20116;-37
2022/05/16 05:24:55;;;;;;;2.40;1.85;;;22.80;60.10;;;;;;5045908;28;20528;-37
2022/05/16 05:27:21;;;;;;;2.45;1.50;;;22.80;60.00;;;;;;5047416;28;20029;-37
2022/05/16 05:29:48;;;;;;;2.80;1.70;;;22.80;60.00;;;;;;5044319;28;20033;-37
2022/05/16 05:32:16;;;;;;;4.38;1.52;;;22.80;60.00;;;;;;5046040;28;20036;-37
2022/05/16 05:34:42;;;;;;;2.33;1.40;;;22.80;60.10;;;;;;5043309;28;20047;-37
2022/05/16 05:37:08;;;;;;;6.78;1.70;;;22.80;60.00;;;;;;5043055;28;20036;-35
2022/05/16 05:39:35;;;;;;;2.63;1.50;;;22.70;60.00;;;;;;5044129;28;20096;-37
2022/05/16 05:42:01;;;;;;;;;;;22.80;60.10;;;;;;5045153;28;20083;-37
2022/05/16 05:44:27;;;;;;;2.83;1.60;;;22.70;60.00;;;;;;5043508;28;19917;-37
2022/05/16 05:46:53;;;;;;;3.38;1.95;;;22.70;60.00;;;;;;5043044;28;20037;-37
2022/05/16 05:49:20;;;;;;;3.50;1.75;;;22.70;60.10;;;;;;5044321;28;20143;-37
2022/05/16 05:51:46;;;;;;;3.90;1.65;;;22.70;60.10;;;;;;5041442;28;20065;-36
2022/05/16 05:54:12;;;;;;;2.47;1.70;;;22.70;60.10;;;;;;5041236;28;20030;-37
2022/05/16 05:56:38;;;;;;;2.70;1.70;;;22.70;60.10;;;;;;5042045;28;20043;-37
2022/05/16 05:59:04;;;;;;;2.05;1.50;;;22.70;60.10;;;;;;5042258;28;20052;-38
2022/05/16 06:01:31;;;;;;;3.15;1.80;;;22.70;60.10;;;;;;5039202;28;20038;-37
2022/05/16 06:03:58;;;;;;;2.55;1.80;;;22.60;60.20;;;;;;5038813;28;20033;-37
2022/05/16 06:06:25;;;;;;;3.83;2.10;;;22.60;60.20;;;;;;5043991;28;20110;-37
2022/05/16 06:08:51;;;;;;;1.55;1.45;;;22.60;61.00;;;;;;5041979;28;20067;-37
2022/05/16 06:11:17;;;;;;;1.92;1.60;;;22.60;60.30;;;;;;5040461;28;20056;-37
2022/05/16 06:13:44;;;;;;;2.83;1.90;;;22.60;60.30;;;;;;5046575;28;20033;-36
2022/05/16 06:16:10;;;;;;;2.30;1.90;;;22.60;60.30;;;;;;5040960;28;20037;-37
2022/05/16 06:18:36;;;;;;;2.67;1.73;;;22.60;60.30;;;;;;5042889;28;20030;-37
2022/05/16 06:21:03;;;;;;;2.15;1.60;;;22.60;60.30;;;;;;5037517;28;20041;-37
2022/05/16 06:23:29;;;;;;;2.13;1.65;;;22.50;60.30;;;;;;5040965;28;20049;-36
2022/05/16 06:25:56;;;;;;;2.05;1.50;;;22.50;60.30;;;;;;5036606;28;20026;-38
2022/05/16 06:28:24;;;;;;;1.48;1.33;;;22.50;60.30;;;;;;5033498;28;20025;-37
2022/05/16 06:30:51;;;;;;;1.98;1.77;;;22.50;60.40;;;;;;5041896;28;20026;-37
2022/05/16 06:33:19;;;;;;;3.13;1.70;;;22.50;60.40;;;;;;5042837;28;20029;-37
2022/05/16 06:35:45;;;;;;;2.33;1.73;;;22.50;60.50;;;;;;5048916;28;20107;-37
2022/05/16 06:38:13;;;;;;;2.60;1.67;;;22.50;60.50;;;;;;5045457;28;20040;-37
2022/05/16 06:40:40;;;;;;;2.22;1.55;;;22.50;60.60;;;;;;5047033;28;20087;-37
2022/05/16 06:43:26;;;;;;;2.20;1.92;;;22.50;60.60;;;;;;5063771;28;20108;-37
2022/05/16 06:45:53;;;;;;;1.90;1.70;;;22.40;60.60;;;;;;5037007;28;20648;-37
2022/05/16 06:48:19;;;;;;;2.03;1.83;;;22.40;60.60;;;;;;5031974;28;20033;-37
2022/05/16 06:50:46;;;;;;;2.00;1.65;;;22.40;60.60;;;;;;5042553;28;20125;-37
2022/05/16 06:53:20;;;;;;;2.08;1.67;;;22.40;60.60;;;;;;5046919;28;20037;-37
2022/05/16 06:55:46;;;;;;;2.05;1.83;;;22.40;60.70;;;;;;5041529;28;20033;-37
2022/05/16 06:58:12;;;;;;;2.25;1.77;;;22.40;60.70;;;;;;5039136;28;20040;-36
2022/05/16 07:00:38;;;;;;;2.15;1.73;;;22.40;60.80;;;;;;5028361;28;20089;-36
2022/05/16 07:03:05;;;;;;;2.50;1.65;;;22.40;60.80;;;;;;5024655;28;20022;-37
2022/05/16 07:05:31;;;;;;;1.75;1.60;;;22.30;60.80;;;;;;5034624;28;20093;-36
2022/05/16 07:07:57;;;;;;;1.98;1.67;;;22.30;60.80;;;;;;5045280;28;20117;-37
2022/05/16 07:10:25;;;;;;;1.75;1.65;;;22.30;60.80;;;;;;5043459;28;20038;-36
2022/05/16 07:12:51;;;;;;;2.10;1.70;;;22.30;60.80;;;;;;5038153;28;20489;-38
2022/05/16 07:15:17;;;;;;;2.13;1.88;;;22.30;60.90;;;;;;5034719;28;20033;-34
2022/05/16 07:17:44;;;;;;;2.50;1.90;;;22.30;61.00;;;;;;5034649;28;20044;-36
2022/05/16 07:20:10;;;;;;;2.15;1.73;;;22.30;60.90;;;;;;5045924;28;20051;-37
2022/05/16 07:22:40;;;;;;;1.90;1.70;;;22.30;61.00;;;;;;5045511;28;20044;-37
2022/05/16 07:25:07;;;;;;;2.00;1.80;;;22.30;61.00;;;;;;5033926;28;22438;-37
2022/05/16 07:30:18;;;;;;;2.38;1.83;;;22.20;61.00;;;;;;5044808;28;20099;-37
2022/05/16 07:32:45;;;;;;;1.92;1.73;;;22.20;61.10;;;;;;5041059;28;20022;-37
2022/05/16 07:35:12;;;;;;;2.37;1.90;;;22.20;61.00;;;;;;5032806;28;20037;-37
2022/05/16 07:37:38;;;;;;;1.83;1.50;;;22.20;61.10;;;;;;5036469;28;20060;-37
2022/05/16 07:40:08;;;;;;;2.38;1.83;;;22.20;61.10;;;;;;5027636;28;20090;-36
2022/05/16 07:42:35;;;;;;;1.88;1.67;;;22.20;61.20;;;;;;5037900;28;20033;-37
2022/05/16 07:45:02;;;;;;;2.40;1.70;;;22.20;61.90;;;;;;5028781;28;20034;-37
2022/05/16 07:47:30;;;;;;;1.60;1.50;;;22.20;61.20;;;;;;5039565;28;20309;-37
2022/05/16 07:49:59;;;;;;;2.08;1.70;;;22.10;61.10;;;;;;5030842;28;20034;-37
2022/05/16 07:52:26;;;;;;;2.10;1.73;;;22.10;61.10;;;;;;5031399;28;20053;-37
2022/05/16 07:54:52;;;;;;;2.80;1.90;;;22.10;61.20;;;;;;5029058;28;20022;-37
2022/05/16 07:57:18;;;;;;;1.90;1.70;;;22.10;61.20;;;;;;5027400;28;20044;-37
2022/05/16 07:59:46;;;;;;;2.55;1.75;;;22.10;61.20;;;;;;5031662;28;20049;-37
2022/05/16 08:02:12;;;;;;;;;;;22.10;61.30;;;;;;5033801;28;20037;-37
2022/05/16 08:04:39;;;;;;;2.03;1.48;;;22.10;61.30;;;;;;5036886;28;19920;-36
2022/05/16 08:07:06;;;;;;;2.13;1.70;;;22.00;61.30;;;;;;5037660;28;20021;-37
2022/05/16 08:12:25;;;;;;;2.30;1.80;;;22.00;61.30;;;;;;5038267;28;20075;-37
2022/05/16 08:14:51;;;;;;;2.08;1.88;;;22.00;61.40;;;;;;5048011;28;20040;-36
2022/05/16 08:17:18;;;;;;;1.90;1.33;;;22.00;61.40;;;;;;5033677;28;20048;-36
2022/05/16 08:19:44;;;;;;;1.50;1.40;;;22.00;61.40;;;;;;5038093;28;20034;-37
2022/05/16 08:22:10;;;;;;;1.58;1.48;;;22.00;61.40;;;;;;5044944;28;20037;-37
2022/05/16 08:24:36;;;;;;;2.17;1.80;;;22.00;61.50;;;;;;5042961;28;20021;-36
2022/05/16 08:27:02;;;;;;;2.90;1.65;;;22.00;61.50;;;;;;5045954;28;20037;-36
2022/05/16 08:29:30;;;;;;;1.90;1.52;;;22.00;61.50;;;;;;5037329;28;20025;-37
2022/05/16 08:31:56;;;;;;;;;;;22.00;61.50;;;;;;5038410;28;20037;-37
2022/05/16 08:34:23;;;;;;;2.28;1.83;;;21.90;61.50;;;;;;5034414;28;19909;-37
2022/05/16 08:39:52;;;;;;;2.10;1.60;;;21.90;61.70;;;;;;5029963;28;20041;-37
2022/05/16 08:42:22;;;;;;;2.08;1.88;;;21.90;61.60;;;;;;5034854;28;20036;-37
2022/05/16 08:45:00;;;;;;;1.98;1.60;;;21.90;61.60;;;;;;5048908;28;20064;-37
2022/05/16 08:47:26;;;;;;;2.03;1.50;;;21.90;61.70;;;;;;5037448;28;20029;-37
2022/05/16 08:49:56;;;;;;;1.83;1.60;;;21.90;61.70;;;;;;5034295;28;20022;-37
2022/05/16 08:52:31;;;;;;;1.98;1.60;;;21.90;61.70;;;;;;5037505;28;20025;-37
2022/05/16 08:55:18;;;;;;;1.60;1.50;;;21.90;61.80;;;;;;5039177;28;20029;-37
2022/05/16 08:57:50;;;;;;;1.70;1.55;;;21.80;61.70;;;;;;5028592;28;20048;-37
2022/05/16 09:00:41;;;;;;;1.60;1.50;;;21.80;61.70;;;;;;5032567;28;20065;-37
2022/05/16 09:03:08;;;;;;;1.73;1.63;;;21.80;61.80;;;;;;5035227;28;20032;-37
2022/05/16 09:05:36;;;;;;;;;;;21.80;61.80;;;;;;5034227;28;20034;-37
2022/05/16 09:08:03;;;;;;;1.97;1.77;;;21.80;61.80;;;;;;5034496;28;19916;-37
2022/05/16 09:10:49;;;;;;;1.63;1.52;;;21.80;61.90;;;;;;5044511;28;20048;-35
2022/05/16 09:13:57;;;;;;;3.05;1.85;;;21.80;62.60;;;;;;5054672;28;20032;-37
2022/05/16 09:16:31;;;;;;;1.95;1.75;;;21.80;61.90;;;;;;5034079;28;20091;-37
2022/05/16 09:19:34;;;;;;;1.70;1.60;;;21.70;61.90;;;;;;5035831;28;20037;-37
2022/05/16 09:22:22;;;;;;;2.05;1.83;;;21.70;61.90;;;;;;5037513;28;20046;-37
2022/05/16 09:24:53;;;;;;;2.33;1.73;;;21.70;61.90;;;;;;5047915;28;20033;-36
2022/05/16 09:30:20;;;;;;;1.80;1.70;;;21.70;61.90;;;;;;5037090;28;20044;-36
2022/05/16 09:32:57;;;;;;;2.33;1.75;;;21.70;62.00;;;;;;5040319;28;23820;-36
2022/05/16 09:35:37;;;;;;;1.92;1.73;;;21.70;62.00;;;;;;5046382;28;20040;-36
2022/05/16 09:38:04;;;;;;;1.60;1.50;;;21.70;62.00;;;;;;5052746;28;20049;-36
2022/05/16 09:40:34;;;;;;;1.67;1.58;;;21.60;61.90;;;;;;5042026;28;20119;-36
2022/05/16 09:43:21;;;;;;;3.03;1.70;;;21.60;62.00;;;;;;5038095;28;20026;-36
2022/05/16 09:46:12;;;;;;;1.75;1.65;;;21.60;62.00;;;;;;5042007;28;20117;-36
2022/05/16 09:48:38;;;;;;;1.63;1.52;;;21.60;62.00;;;;;;5032495;28;20045;-36
2022/05/16 09:51:06;;;;;;;1.83;1.55;;;21.60;62.10;;;;;;5031074;28;20021;-36
2022/05/16 09:53:36;;;;;;;1.75;1.48;;;21.60;62.10;;;;;;5034430;28;20021;-36
2022/05/16 09:56:26;;;;;;;1.95;1.55;;;21.60;62.10;;;;;;5039695;28;20025;-36
2022/05/16 09:59:13;;;;;;;1.92;1.73;;;21.60;62.10;;;;;;5040980;28;20426;-37
2022/05/16 10:01:43;;;;;;;2.13;1.60;;;21.60;62.10;;;;;;5044680;28;20636;-36
2022/05/16 10:04:12;;;;;;;2.13;1.65;;;21.60;62.20;;;;;;5040855;28;20029;-36
2022/05/16 10:06:42;;;;;;;1.95;1.70;;;21.60;62.20;;;;;;5038039;28;20124;-36
2022/05/16 10:09:14;;;;;;;1.50;1.40;;;21.50;62.20;;;;;;5040506;28;20072;-36
2022/05/16 10:11:41;;;;;;;2.15;1.95;;;21.50;62.20;;;;;;5044562;28;20029;-35
2022/05/16 10:14:07;;;;;;;1.67;1.55;;;21.50;62.20;;;;;;5048621;28;20030;-36
2022/05/16 10:16:36;;;;;;;2.97;1.73;;;21.50;62.20;;;;;;5035763;28;20129;-36
2022/05/16 10:19:10;;;;;;;1.75;1.65;;;21.50;62.30;;;;;;5041132;28;20033;-38
2022/05/16 10:21:39;;;;;;;2.28;1.70;;;21.50;62.20;;;;;;5058754;28;20068;-43
2022/05/16 10:24:07;;;;;;;2.38;2.17;;;21.60;62.00;;;;;;5040446;28;20038;-44
2022/05/16 10:26:38;;;;;;;;;;;21.60;61.40;;;;;;5040799;28;20038;-42
2022/05/16 10:29:14;;;;;;;2.70;2.00;;;21.60;61.10;;;;;;5044267;28;20344;-41
2022/05/16 10:34:35;;;;;;;2.35;2.15;;;21.60;60.40;;;;;;5042792;28;20122;-41
2022/05/16 10:37:01;;;;;;;3.15;2.13;;;21.70;60.30;;;;;;5047412;28;20021;-40
2022/05/16 10:39:29;;;;;;;2.45;2.25;;;21.60;60.20;;;;;;5064955;28;20044;-41
2022/05/16 10:42:15;;;;;;;3.13;2.30;;;21.60;60.00;;;;;;5042909;28;20068;-41
2022/05/16 10:44:48;;;;;;;3.75;2.25;;;21.70;60.10;;;;;;5047562;28;20036;-42
2022/05/16 10:47:37;;;;;;;3.47;2.50;;;21.60;59.90;;;;;;5045287;28;20044;-38
2022/05/16 10:50:11;;;;;;;6.57;2.28;;;21.70;60.00;;;;;;5040305;28;20087;-42
2022/05/16 10:52:54;;;;;;;4.50;2.70;;;21.60;60.30;;;;;;5038772;28;20092;-41
2022/05/16 10:55:20;;;;;;;3.95;2.35;;;21.70;60.30;;;;;;5047080;28;20053;-37
2022/05/16 10:58:06;;;;;;;2.95;2.25;;;21.70;60.30;;;;;;5035943;28;20036;-39
2022/05/16 11:00:59;;;;;;;6.43;2.45;;;21.70;60.50;;;;;;5040902;28;20057;-39
2022/05/16 11:03:38;;;;;;;5.20;2.40;;;21.70;60.40;;;;;;5042549;28;20025;-39
2022/05/16 11:06:22;;;;;;;5.22;2.53;;;21.70;60.30;;;;;;5042231;28;20022;-39
2022/05/16 11:09:06;;;;;;;3.72;2.60;;;21.70;60.20;;;;;;5053894;28;20113;-38
2022/05/16 11:11:50;;;;;;;4.15;2.70;;;21.70;60.20;;;;;;5048730;28;20140;-38
2022/05/16 11:14:36;;;;;;;4.05;2.80;;;21.60;60.00;;;;;;5064324;28;20083;-39
2022/05/16 11:17:28;;;;;;;7.10;2.47;;;21.70;60.00;;;;;;5048721;28;20029;-39
2022/05/16 11:20:07;;;;;;;3.25;2.42;;;21.60;59.90;;;;;;5032974;28;20045;-39
2022/05/16 11:22:42;;;;;;;3.22;2.38;;;21.60;59.80;;;;;;5038428;28;20038;-38
2022/05/16 11:25:13;;;;;;;4.00;2.65;;;21.60;59.80;;;;;;5044966;28;20025;-38
2022/05/16 11:27:58;;;;;;;4.75;2.60;;;21.60;59.70;;;;;;5067350;28;20037;-38
2022/05/16 11:30:42;;;;;;;3.58;2.17;;;21.60;59.60;;;;;;5044807;28;20037;-40
2022/05/16 11:33:38;;;;;;;3.83;2.55;;;21.60;59.60;;;;;;5043501;28;20032;-39
2022/05/16 11:36:32;;;;;;;3.20;2.42;;;21.60;59.50;;;;;;5047687;28;20148;-39
2022/05/16 11:39:02;;;;;;;2.83;2.60;;;21.60;59.40;;;;;;5039941;28;20426;-38
2022/05/16 11:41:40;;;;;;;3.42;2.50;;;21.60;59.50;;;;;;5051311;28;20172;-39
2022/05/16 11:44:17;;;;;;;2.85;2.33;;;21.60;59.40;;;;;;5052577;28;20024;-39
2022/05/16 11:47:01;;;;;;;6.03;2.77;;;21.60;59.30;;;;;;5050179;28;20021;-39
2022/05/16 11:49:52;;;;;;;2.67;2.08;;;21.60;59.30;;;;;;5058707;28;20316;-39
2022/05/16 11:52:46;;;;;;;2.78;1.92;;;21.60;59.30;;;;;;5032234;28;20026;-38
2022/05/16 12:01:38;;;;;;;2.95;2.30;;;21.50;59.10;;;;;;5045345;28;20109;-38
2022/05/16 12:04:12;;;;;;;4.47;2.80;;;21.50;59.10;;;;;;5045910;28;20028;-39
2022/05/16 12:06:45;;;;;;;3.83;2.50;;;21.50;59.00;;;;;;5046770;28;20036;-39
2022/05/16 12:09:17;;;;;;;2.78;2.35;;;21.50;59.10;;;;;;5042624;28;20032;-38
2022/05/16 12:11:58;;;;;;;3.45;2.50;;;21.50;59.00;;;;;;5042676;28;20059;-39
2022/05/16 12:14:29;;;;;;;3.03;2.33;;;21.50;59.00;;;;;;5047815;28;20035;-38
2022/05/16 12:17:19;;;;;;;3.63;2.22;;;21.50;59.00;;;;;;5042808;28;20029;-39
2022/05/16 12:19:48;;;;;;;2.63;2.33;;;21.50;59.00;;;;;;5042418;28;20025;-37
2022/05/16 12:22:36;;;;;;;2.58;2.05;;;21.40;58.80;;;;;;5061446;28;20034;-39
2022/05/16 12:25:03;;;;;;;3.13;2.65;;;21.40;58.80;;;;;;5047594;28;20029;-39
2022/05/16 12:27:43;;;;;;;2.40;2.20;;;21.40;58.80;;;;;;5046856;28;20033;-39
2022/05/16 12:30:12;;;;;;;2.53;2.22;;;21.40;58.80;;;;;;5050381;28;20045;-38
2022/05/16 12:32:38;;;;;;;3.15;2.30;;;21.40;58.80;;;;;;5059224;28;21204;-39
2022/05/16 12:35:06;;;;;;;2.53;2.13;;;21.40;58.80;;;;;;5045427;28;20029;-39
2022/05/16 12:37:33;;;;;;;3.72;2.40;;;21.40;58.80;;;;;;5042123;28;20692;-39
2022/05/16 12:40:04;;;;;;;2.58;2.30;;;21.40;58.80;;;;;;5045858;28;20044;-39
2022/05/16 12:42:50;;;;;;;2.72;2.40;;;21.40;58.70;;;;;;5044803;28;20041;-39
2022/05/16 12:45:35;;;;;;;2.55;2.25;;;21.40;58.80;;;;;;5050090;28;20045;-39
2022/05/16 12:48:10;;;;;;;3.15;2.63;;;21.40;58.80;;;;;;5042936;28;20038;-39
2022/05/16 12:50:48;;;;;;;2.67;2.28;;;21.40;58.80;;;;;;5043980;28;20034;-39
2022/05/16 12:53:26;;;;;;;2.83;2.30;;;21.40;58.90;;;;;;5044806;28;20034;-39
2022/05/16 12:56:14;;;;;;;3.20;2.53;;;21.40;58.80;;;;;;5057309;28;20028;-39
2022/05/16 12:59:02;;;;;;;2.30;2.10;;;21.40;58.80;;;;;;5041982;28;20135;-39
2022/05/16 13:01:42;;;;;;;3.10;2.30;;;21.40;58.90;;;;;;5060820;28;20041;-39
2022/05/16 13:04:11;;;;;;;3.47;2.47;;;21.30;58.90;;;;;;5059243;28;20029;-39
2022/05/16 13:06:59;;;;;;;2.65;2.30;;;21.30;59.50;;;;;;5049533;28;20040;-39
2022/05/16 13:09:30;;;;;;;2.58;2.25;;;21.30;59.00;;;;;;5048925;28;20041;-39
2022/05/16 13:12:30;;;;;;;2.20;2.00;;;21.30;59.00;;;;;;5044096;28;20103;-39
2022/05/16 13:15:09;;;;;;;3.15;2.05;;;21.30;59.00;;;;;;5045685;28;20038;-42
2022/05/16 13:17:49;;;;;;;2.40;2.03;;;21.30;59.00;;;;;;5052649;28;20021;-40
2022/05/16 13:20:24;;;;;;;2.40;2.10;;;21.30;59.00;;;;;;5056215;28;20036;-40
2022/05/16 13:22:50;;;;;;;2.45;2.13;;;21.30;59.00;;;;;;5059796;28;20059;-40
2022/05/16 13:25:18;;;;;;;3.33;2.03;;;21.30;59.10;;;;;;5054989;28;20224;-40
2022/05/16 13:30:35;;;;;;;2.83;2.30;;;21.30;59.10;;;;;;5046060;28;20045;-47
2022/05/16 13:33:01;;;;;;;2.50;2.05;;;21.30;59.10;;;;;;5053381;28;20036;-48
2022/05/16 13:35:30;;;;;;;2.47;2.17;;;21.30;59.10;;;;;;5056840;28;20033;-48
2022/05/16 13:37:56;;;;;;;2.22;2.03;;;21.30;59.20;;;;;;5047966;28;20061;-49
2022/05/16 13:40:27;;;;;;;2.35;2.00;;;21.30;59.20;;;;;;5045662;28;20119;-49
2022/05/16 13:42:56;;;;;;;2.42;2.00;;;21.30;59.20;;;;;;5044239;28;20091;-49
2022/05/16 13:45:27;;;;;;;2.58;2.10;;;21.40;59.40;;;;;;5046527;28;20029;-49
2022/05/16 13:48:01;;;;;;;2.53;2.10;;;21.30;59.40;;;;;;5047984;28;20573;-49